sensor_id;sensor_type;location;lat;lon;timestamp;P1;durP1;ratioP1;P2;durP2;ratioP2
12956;SDS011;6543;48.836;10.092;2023-04-16T00:01:49;8.87;;;8.07;;
12956;SDS011;6543;48.836;10.092;2023-04-16T00:04:16;8.27;;;7.50;;
12956;SDS011;6543;48.836;10.092;2023-04-16T00:06:44;8.53;;;7.80;;
12956;SDS011;6543;48.836;10.092;2023-04-16T00:09:11;8.93;;;8.10;;
12956;SDS011;6543;48.836;10.092;2023-04-16T00:11:38;9.93;;;9.03;;
12956;SDS011;6543;48.836;10.092;2023-04-16T00:14:05;9.70;;;8.73;;
12956;SDS011;6543;48.836;10.092;2023-04-16T00:16:31;8.73;;;7.93;;
12956;SDS011;6543;48.836;10.092;2023-04-16T00:18:58;9.17;;;8.37;;
12956;SDS011;6543;48.836;10.092;2023-04-16T00:21:25;8.87;;;8.03;;
12956;SDS011;6543;48.836;10.092;2023-04-16T00:23:53;8.60;;;7.87;;
12956;SDS011;6543;48.836;10.092;2023-04-16T00:26:20;9.13;;;8.13;;
12956;SDS011;6543;48.836;10.092;2023-04-16T00:28:47;10.33;;;9.23;;
12956;SDS011;6543;48.836;10.092;2023-04-16T00:31:14;9.13;;;8.33;;
12956;SDS011;6543;48.836;10.092;2023-04-16T00:33:41;9.33;;;8.50;;
12956;SDS011;6543;48.836;10.092;2023-04-16T00:36:08;10.33;;;9.33;;
12956;SDS011;6543;48.836;10.092;2023-04-16T00:38:35;10.20;;;9.30;;
12956;SDS011;6543;48.836;10.092;2023-04-16T00:41:03;9.17;;;8.33;;
12956;SDS011;6543;48.836;10.092;2023-04-16T00:43:30;10.03;;;9.13;;
12956;SDS011;6543;48.836;10.092;2023-04-16T00:45:57;9.53;;;8.63;;
12956;SDS011;6543;48.836;10.092;2023-04-16T00:48:24;9.07;;;8.17;;
12956;SDS011;6543;48.836;10.092;2023-04-16T00:50:52;9.87;;;8.87;;
12956;SDS011;6543;48.836;10.092;2023-04-16T00:53:20;9.80;;;8.80;;
12956;SDS011;6543;48.836;10.092;2023-04-16T00:55:47;8.70;;;7.90;;
12956;SDS011;6543;48.836;10.092;2023-04-16T00:58:16;10.20;;;9.20;;
12956;SDS011;6543;48.836;10.092;2023-04-16T01:00:43;9.40;;;8.50;;
12956;SDS011;6543;48.836;10.092;2023-04-16T01:03:10;9.73;;;8.73;;
12956;SDS011;6543;48.836;10.092;2023-04-16T01:05:37;10.03;;;9.03;;
12956;SDS011;6543;48.836;10.092;2023-04-16T01:08:04;9.73;;;8.80;;
12956;SDS011;6543;48.836;10.092;2023-04-16T01:10:31;9.50;;;8.60;;
12956;SDS011;6543;48.836;10.092;2023-04-16T01:12:58;9.73;;;8.73;;
12956;SDS011;6543;48.836;10.092;2023-04-16T01:15:27;8.87;;;8.07;;
12956;SDS011;6543;48.836;10.092;2023-04-16T01:17:54;8.30;;;7.60;;
12956;SDS011;6543;48.836;10.092;2023-04-16T01:20:21;8.03;;;7.23;;
12956;SDS011;6543;48.836;10.092;2023-04-16T01:22:49;7.70;;;6.93;;
12956;SDS011;6543;48.836;10.092;2023-04-16T01:25:16;8.43;;;7.63;;
12956;SDS011;6543;48.836;10.092;2023-04-16T01:27:43;8.23;;;7.50;;
12956;SDS011;6543;48.836;10.092;2023-04-16T01:30:10;7.27;;;6.67;;
12956;SDS011;6543;48.836;10.092;2023-04-16T01:32:37;6.37;;;5.87;;
12956;SDS011;6543;48.836;10.092;2023-04-16T01:35:04;7.67;;;7.07;;
12956;SDS011;6543;48.836;10.092;2023-04-16T01:37:31;7.00;;;6.40;;
12956;SDS011;6543;48.836;10.092;2023-04-16T01:39:59;6.97;;;6.37;;
12956;SDS011;6543;48.836;10.092;2023-04-16T01:42:26;7.50;;;6.70;;
12956;SDS011;6543;48.836;10.092;2023-04-16T01:44:53;7.63;;;7.00;;
12956;SDS011;6543;48.836;10.092;2023-04-16T01:47:20;7.83;;;7.03;;
12956;SDS011;6543;48.836;10.092;2023-04-16T01:49:47;9.83;;;7.63;;
12956;SDS011;6543;48.836;10.092;2023-04-16T01:52:14;8.67;;;7.87;;
12956;SDS011;6543;48.836;10.092;2023-04-16T01:54:41;8.17;;;7.37;;
12956;SDS011;6543;48.836;10.092;2023-04-16T01:57:09;8.03;;;7.30;;
12956;SDS011;6543;48.836;10.092;2023-04-16T01:59:36;8.47;;;7.67;;
12956;SDS011;6543;48.836;10.092;2023-04-16T02:02:04;8.07;;;7.27;;
12956;SDS011;6543;48.836;10.092;2023-04-16T02:04:34;10.33;;;6.60;;
12956;SDS011;6543;48.836;10.092;2023-04-16T02:07:02;8.10;;;7.30;;
12956;SDS011;6543;48.836;10.092;2023-04-16T02:09:29;8.27;;;7.47;;
12956;SDS011;6543;48.836;10.092;2023-04-16T02:11:57;7.90;;;7.10;;
12956;SDS011;6543;48.836;10.092;2023-04-16T02:14:25;7.90;;;7.17;;
12956;SDS011;6543;48.836;10.092;2023-04-16T02:16:52;7.80;;;7.03;;
12956;SDS011;6543;48.836;10.092;2023-04-16T02:19:19;7.90;;;7.17;;
12956;SDS011;6543;48.836;10.092;2023-04-16T02:21:46;7.40;;;6.53;;
12956;SDS011;6543;48.836;10.092;2023-04-16T02:24:13;6.73;;;6.13;;
12956;SDS011;6543;48.836;10.092;2023-04-16T02:26:40;6.67;;;6.07;;
12956;SDS011;6543;48.836;10.092;2023-04-16T02:29:06;7.00;;;6.40;;
12956;SDS011;6543;48.836;10.092;2023-04-16T02:31:35;7.20;;;6.50;;
12956;SDS011;6543;48.836;10.092;2023-04-16T02:34:02;7.43;;;6.70;;
12956;SDS011;6543;48.836;10.092;2023-04-16T02:36:29;6.93;;;6.23;;
12956;SDS011;6543;48.836;10.092;2023-04-16T02:38:56;6.77;;;6.07;;
12956;SDS011;6543;48.836;10.092;2023-04-16T02:41:24;6.70;;;6.10;;
12956;SDS011;6543;48.836;10.092;2023-04-16T02:43:51;6.27;;;5.70;;
12956;SDS011;6543;48.836;10.092;2023-04-16T02:46:18;7.07;;;6.37;;
12956;SDS011;6543;48.836;10.092;2023-04-16T02:48:46;6.23;;;5.63;;
12956;SDS011;6543;48.836;10.092;2023-04-16T02:51:13;7.27;;;5.87;;
12956;SDS011;6543;48.836;10.092;2023-04-16T02:53:40;5.63;;;5.13;;
12956;SDS011;6543;48.836;10.092;2023-04-16T02:56:10;5.93;;;5.43;;
12956;SDS011;6543;48.836;10.092;2023-04-16T02:58:37;5.00;;;4.57;;
12956;SDS011;6543;48.836;10.092;2023-04-16T03:01:04;5.57;;;5.07;;
12956;SDS011;6543;48.836;10.092;2023-04-16T03:03:31;5.53;;;5.03;;
12956;SDS011;6543;48.836;10.092;2023-04-16T03:05:59;5.53;;;5.03;;
12956;SDS011;6543;48.836;10.092;2023-04-16T03:08:26;5.33;;;4.83;;
12956;SDS011;6543;48.836;10.092;2023-04-16T03:10:52;4.90;;;4.50;;
12956;SDS011;6543;48.836;10.092;2023-04-16T03:13:19;4.90;;;4.23;;
12956;SDS011;6543;48.836;10.092;2023-04-16T03:15:47;4.90;;;4.50;;
12956;SDS011;6543;48.836;10.092;2023-04-16T03:18:14;5.10;;;4.60;;
12956;SDS011;6543;48.836;10.092;2023-04-16T03:20:41;5.47;;;4.97;;
12956;SDS011;6543;48.836;10.092;2023-04-16T03:23:09;4.37;;;3.97;;
12956;SDS011;6543;48.836;10.092;2023-04-16T03:25:36;4.70;;;4.30;;
12956;SDS011;6543;48.836;10.092;2023-04-16T03:28:04;4.20;;;3.90;;
12956;SDS011;6543;48.836;10.092;2023-04-16T03:30:31;4.60;;;4.13;;
12956;SDS011;6543;48.836;10.092;2023-04-16T03:32:58;4.73;;;4.33;;
12956;SDS011;6543;48.836;10.092;2023-04-16T03:35:25;4.97;;;4.50;;
12956;SDS011;6543;48.836;10.092;2023-04-16T03:37:52;4.77;;;4.27;;
12956;SDS011;6543;48.836;10.092;2023-04-16T03:40:20;4.87;;;4.47;;
12956;SDS011;6543;48.836;10.092;2023-04-16T03:42:47;4.30;;;3.90;;
12956;SDS011;6543;48.836;10.092;2023-04-16T03:45:13;4.57;;;4.27;;
12956;SDS011;6543;48.836;10.092;2023-04-16T03:47:40;4.40;;;4.00;;
12956;SDS011;6543;48.836;10.092;2023-04-16T03:50:08;5.07;;;4.40;;
12956;SDS011;6543;48.836;10.092;2023-04-16T03:52:35;4.30;;;3.70;;
12956;SDS011;6543;48.836;10.092;2023-04-16T03:55:02;4.23;;;3.87;;
12956;SDS011;6543;48.836;10.092;2023-04-16T03:57:31;4.33;;;3.90;;
12956;SDS011;6543;48.836;10.092;2023-04-16T03:59:58;3.73;;;3.50;;
12956;SDS011;6543;48.836;10.092;2023-04-16T04:02:24;4.27;;;3.87;;
12956;SDS011;6543;48.836;10.092;2023-04-16T04:04:51;4.03;;;3.63;;
12956;SDS011;6543;48.836;10.092;2023-04-16T04:07:18;4.50;;;4.03;;
12956;SDS011;6543;48.836;10.092;2023-04-16T04:09:45;4.23;;;3.83;;
12956;SDS011;6543;48.836;10.092;2023-04-16T04:12:12;4.80;;;4.40;;
12956;SDS011;6543;48.836;10.092;2023-04-16T04:14:41;5.40;;;4.57;;
12956;SDS011;6543;48.836;10.092;2023-04-16T04:17:07;4.67;;;4.27;;
12956;SDS011;6543;48.836;10.092;2023-04-16T04:19:34;4.73;;;4.33;;
12956;SDS011;6543;48.836;10.092;2023-04-16T04:22:01;4.57;;;4.17;;
12956;SDS011;6543;48.836;10.092;2023-04-16T04:24:29;4.47;;;4.03;;
12956;SDS011;6543;48.836;10.092;2023-04-16T04:26:55;4.43;;;4.03;;
12956;SDS011;6543;48.836;10.092;2023-04-16T04:29:22;5.40;;;4.90;;
12956;SDS011;6543;48.836;10.092;2023-04-16T04:31:50;5.20;;;4.70;;
12956;SDS011;6543;48.836;10.092;2023-04-16T04:34:19;4.40;;;4.00;;
12956;SDS011;6543;48.836;10.092;2023-04-16T04:36:46;6.00;;;5.13;;
12956;SDS011;6543;48.836;10.092;2023-04-16T04:39:12;4.80;;;4.37;;
12956;SDS011;6543;48.836;10.092;2023-04-16T04:41:39;5.07;;;4.43;;
12956;SDS011;6543;48.836;10.092;2023-04-16T04:44:06;5.63;;;4.77;;
12956;SDS011;6543;48.836;10.092;2023-04-16T04:46:33;5.50;;;5.00;;
12956;SDS011;6543;48.836;10.092;2023-04-16T04:49:01;5.00;;;4.60;;
12956;SDS011;6543;48.836;10.092;2023-04-16T04:51:28;5.07;;;4.57;;
12956;SDS011;6543;48.836;10.092;2023-04-16T04:53:55;5.10;;;4.60;;
12956;SDS011;6543;48.836;10.092;2023-04-16T04:56:22;5.10;;;4.60;;
12956;SDS011;6543;48.836;10.092;2023-04-16T04:58:49;5.43;;;4.93;;
12956;SDS011;6543;48.836;10.092;2023-04-16T05:01:16;5.00;;;4.50;;
12956;SDS011;6543;48.836;10.092;2023-04-16T05:03:43;6.70;;;5.57;;
12956;SDS011;6543;48.836;10.092;2023-04-16T05:06:11;5.73;;;5.03;;
12956;SDS011;6543;48.836;10.092;2023-04-16T05:08:38;6.20;;;5.53;;
12956;SDS011;6543;48.836;10.092;2023-04-16T05:11:05;6.20;;;5.23;;
12956;SDS011;6543;48.836;10.092;2023-04-16T05:13:32;6.40;;;5.00;;
12956;SDS011;6543;48.836;10.092;2023-04-16T05:15:59;8.27;;;4.63;;
12956;SDS011;6543;48.836;10.092;2023-04-16T05:18:25;5.40;;;4.90;;
12956;SDS011;6543;48.836;10.092;2023-04-16T05:20:52;5.17;;;4.67;;
12956;SDS011;6543;48.836;10.092;2023-04-16T05:23:21;5.00;;;4.50;;
12956;SDS011;6543;48.836;10.092;2023-04-16T05:25:48;4.77;;;4.10;;
12956;SDS011;6543;48.836;10.092;2023-04-16T05:28:14;4.63;;;4.20;;
12956;SDS011;6543;48.836;10.092;2023-04-16T05:30:41;6.40;;;4.60;;
12956;SDS011;6543;48.836;10.092;2023-04-16T05:33:08;4.17;;;3.77;;
12956;SDS011;6543;48.836;10.092;2023-04-16T05:35:35;4.60;;;4.20;;
12956;SDS011;6543;48.836;10.092;2023-04-16T05:38:02;5.03;;;4.53;;
12956;SDS011;6543;48.836;10.092;2023-04-16T05:40:30;5.57;;;4.30;;
12956;SDS011;6543;48.836;10.092;2023-04-16T05:42:57;7.00;;;4.37;;
12956;SDS011;6543;48.836;10.092;2023-04-16T05:45:24;4.77;;;3.70;;
12956;SDS011;6543;48.836;10.092;2023-04-16T05:47:52;4.70;;;4.30;;
12956;SDS011;6543;48.836;10.092;2023-04-16T05:50:19;4.60;;;4.20;;
12956;SDS011;6543;48.836;10.092;2023-04-16T05:52:46;4.77;;;4.37;;
12956;SDS011;6543;48.836;10.092;2023-04-16T05:55:13;4.43;;;3.90;;
12956;SDS011;6543;48.836;10.092;2023-04-16T05:57:41;4.33;;;3.80;;
12956;SDS011;6543;48.836;10.092;2023-04-16T06:00:08;4.47;;;3.90;;
12956;SDS011;6543;48.836;10.092;2023-04-16T06:02:35;5.47;;;3.67;;
12956;SDS011;6543;48.836;10.092;2023-04-16T06:05:02;4.77;;;3.80;;
12956;SDS011;6543;48.836;10.092;2023-04-16T06:07:29;3.93;;;3.53;;
12956;SDS011;6543;48.836;10.092;2023-04-16T06:09:56;3.80;;;3.40;;
12956;SDS011;6543;48.836;10.092;2023-04-16T06:12:23;3.67;;;3.37;;
12956;SDS011;6543;48.836;10.092;2023-04-16T06:14:51;4.43;;;3.63;;
12956;SDS011;6543;48.836;10.092;2023-04-16T06:17:18;4.23;;;3.83;;
12956;SDS011;6543;48.836;10.092;2023-04-16T06:19:45;4.10;;;3.70;;
12956;SDS011;6543;48.836;10.092;2023-04-16T06:22:12;4.50;;;4.10;;
12956;SDS011;6543;48.836;10.092;2023-04-16T06:24:39;4.23;;;3.87;;
12956;SDS011;6543;48.836;10.092;2023-04-16T06:27:06;3.83;;;3.53;;
12956;SDS011;6543;48.836;10.092;2023-04-16T06:29:33;4.97;;;3.70;;
12956;SDS011;6543;48.836;10.092;2023-04-16T06:32:01;3.90;;;3.50;;
12956;SDS011;6543;48.836;10.092;2023-04-16T06:34:28;4.40;;;4.00;;
12956;SDS011;6543;48.836;10.092;2023-04-16T06:36:56;4.13;;;3.73;;
12956;SDS011;6543;48.836;10.092;2023-04-16T06:39:23;4.30;;;3.90;;
12956;SDS011;6543;48.836;10.092;2023-04-16T06:41:50;4.40;;;3.73;;
12956;SDS011;6543;48.836;10.092;2023-04-16T06:44:17;4.40;;;4.00;;
12956;SDS011;6543;48.836;10.092;2023-04-16T06:46:44;5.00;;;3.97;;
12956;SDS011;6543;48.836;10.092;2023-04-16T06:49:12;5.20;;;4.43;;
12956;SDS011;6543;48.836;10.092;2023-04-16T06:51:39;6.27;;;3.80;;
12956;SDS011;6543;48.836;10.092;2023-04-16T06:54:06;5.33;;;4.90;;
12956;SDS011;6543;48.836;10.092;2023-04-16T06:56:33;5.17;;;4.67;;
12956;SDS011;6543;48.836;10.092;2023-04-16T06:59:01;4.97;;;4.40;;
12956;SDS011;6543;48.836;10.092;2023-04-16T07:01:28;8.40;;;4.40;;
12956;SDS011;6543;48.836;10.092;2023-04-16T07:03:55;5.50;;;5.00;;
12956;SDS011;6543;48.836;10.092;2023-04-16T07:06:23;6.53;;;5.07;;
12956;SDS011;6543;48.836;10.092;2023-04-16T07:08:51;5.27;;;4.77;;
12956;SDS011;6543;48.836;10.092;2023-04-16T07:11:17;7.20;;;5.60;;
12956;SDS011;6543;48.836;10.092;2023-04-16T07:13:45;6.77;;;5.40;;
12956;SDS011;6543;48.836;10.092;2023-04-16T07:16:12;7.03;;;5.80;;
12956;SDS011;6543;48.836;10.092;2023-04-16T07:18:38;6.83;;;5.93;;
12956;SDS011;6543;48.836;10.092;2023-04-16T07:21:05;6.93;;;5.97;;
12956;SDS011;6543;48.836;10.092;2023-04-16T07:23:33;6.10;;;5.50;;
12956;SDS011;6543;48.836;10.092;2023-04-16T07:26:00;6.37;;;5.67;;
12956;SDS011;6543;48.836;10.092;2023-04-16T07:28:27;6.03;;;5.47;;
12956;SDS011;6543;48.836;10.092;2023-04-16T07:30:54;8.10;;;6.87;;
12956;SDS011;6543;48.836;10.092;2023-04-16T07:33:21;7.93;;;6.43;;
12956;SDS011;6543;48.836;10.092;2023-04-16T07:35:48;7.10;;;6.40;;
12956;SDS011;6543;48.836;10.092;2023-04-16T07:38:15;8.97;;;6.80;;
12956;SDS011;6543;48.836;10.092;2023-04-16T07:40:43;7.10;;;6.40;;
12956;SDS011;6543;48.836;10.092;2023-04-16T07:43:10;7.87;;;6.90;;
12956;SDS011;6543;48.836;10.092;2023-04-16T07:45:39;6.93;;;6.23;;
12956;SDS011;6543;48.836;10.092;2023-04-16T07:48:06;7.20;;;6.17;;
12956;SDS011;6543;48.836;10.092;2023-04-16T07:50:32;7.80;;;7.00;;
12956;SDS011;6543;48.836;10.092;2023-04-16T07:52:59;7.97;;;6.70;;
12956;SDS011;6543;48.836;10.092;2023-04-16T07:55:26;7.60;;;6.80;;
12956;SDS011;6543;48.836;10.092;2023-04-16T07:57:54;9.37;;;7.80;;
12956;SDS011;6543;48.836;10.092;2023-04-16T08:00:21;7.70;;;6.90;;
12956;SDS011;6543;48.836;10.092;2023-04-16T08:02:48;8.50;;;6.83;;
12956;SDS011;6543;48.836;10.092;2023-04-16T08:05:15;9.53;;;7.60;;
12956;SDS011;6543;48.836;10.092;2023-04-16T08:07:42;8.83;;;7.70;;
12956;SDS011;6543;48.836;10.092;2023-04-16T08:10:09;9.90;;;7.90;;
12956;SDS011;6543;48.836;10.092;2023-04-16T08:12:36;7.97;;;7.13;;
12956;SDS011;6543;48.836;10.092;2023-04-16T08:15:05;9.60;;;7.37;;
12956;SDS011;6543;48.836;10.092;2023-04-16T08:17:32;8.63;;;7.80;;
12956;SDS011;6543;48.836;10.092;2023-04-16T08:20:00;10.03;;;7.33;;
12956;SDS011;6543;48.836;10.092;2023-04-16T08:22:26;7.00;;;6.13;;
12956;SDS011;6543;48.836;10.092;2023-04-16T08:24:53;7.57;;;6.87;;
12956;SDS011;6543;48.836;10.092;2023-04-16T08:27:20;7.47;;;6.30;;
12956;SDS011;6543;48.836;10.092;2023-04-16T08:29:47;6.70;;;5.73;;
12956;SDS011;6543;48.836;10.092;2023-04-16T08:32:15;6.13;;;5.53;;
12956;SDS011;6543;48.836;10.092;2023-04-16T08:34:42;6.17;;;5.57;;
12956;SDS011;6543;48.836;10.092;2023-04-16T08:37:09;8.17;;;6.63;;
12956;SDS011;6543;48.836;10.092;2023-04-16T08:39:36;12.30;;;7.77;;
12956;SDS011;6543;48.836;10.092;2023-04-16T08:42:03;7.80;;;6.30;;
12956;SDS011;6543;48.836;10.092;2023-04-16T08:44:31;6.67;;;5.93;;
12956;SDS011;6543;48.836;10.092;2023-04-16T08:47:02;6.67;;;5.97;;
12956;SDS011;6543;48.836;10.092;2023-04-16T08:49:35;7.07;;;6.37;;
12956;SDS011;6543;48.836;10.092;2023-04-16T08:52:09;9.37;;;6.87;;
12956;SDS011;6543;48.836;10.092;2023-04-16T08:54:42;7.33;;;6.63;;
12956;SDS011;6543;48.836;10.092;2023-04-16T08:57:18;7.13;;;4.97;;
12956;SDS011;6543;48.836;10.092;2023-04-16T08:59:47;5.97;;;5.40;;
12956;SDS011;6543;48.836;10.092;2023-04-16T09:02:15;6.40;;;5.80;;
12956;SDS011;6543;48.836;10.092;2023-04-16T09:04:43;7.40;;;5.90;;
12956;SDS011;6543;48.836;10.092;2023-04-16T09:07:11;7.40;;;5.73;;
12956;SDS011;6543;48.836;10.092;2023-04-16T09:09:38;6.53;;;5.87;;
12956;SDS011;6543;48.836;10.092;2023-04-16T09:12:07;6.00;;;5.40;;
12956;SDS011;6543;48.836;10.092;2023-04-16T09:14:35;6.67;;;5.77;;
12956;SDS011;6543;48.836;10.092;2023-04-16T09:17:05;6.53;;;5.83;;
12956;SDS011;6543;48.836;10.092;2023-04-16T09:19:33;6.90;;;6.20;;
12956;SDS011;6543;48.836;10.092;2023-04-16T09:22:02;6.93;;;5.70;;
12956;SDS011;6543;48.836;10.092;2023-04-16T09:24:29;7.40;;;5.97;;
12956;SDS011;6543;48.836;10.092;2023-04-16T09:26:56;8.13;;;6.57;;
12956;SDS011;6543;48.836;10.092;2023-04-16T09:29:33;6.43;;;5.73;;
12956;SDS011;6543;48.836;10.092;2023-04-16T09:32:01;8.07;;;6.77;;
12956;SDS011;6543;48.836;10.092;2023-04-16T09:34:28;8.77;;;6.03;;
12956;SDS011;6543;48.836;10.092;2023-04-16T09:37:02;5.33;;;4.83;;
12956;SDS011;6543;48.836;10.092;2023-04-16T09:39:39;7.10;;;5.67;;
12956;SDS011;6543;48.836;10.092;2023-04-16T09:42:07;6.50;;;5.80;;
12956;SDS011;6543;48.836;10.092;2023-04-16T09:44:34;7.20;;;4.67;;
12956;SDS011;6543;48.836;10.092;2023-04-16T09:47:04;4.70;;;4.30;;
12956;SDS011;6543;48.836;10.092;2023-04-16T09:49:32;5.97;;;4.73;;
12956;SDS011;6543;48.836;10.092;2023-04-16T09:52:00;8.30;;;4.47;;
12956;SDS011;6543;48.836;10.092;2023-04-16T09:54:34;4.53;;;3.47;;
12956;SDS011;6543;48.836;10.092;2023-04-16T09:57:00;5.37;;;4.87;;
12956;SDS011;6543;48.836;10.092;2023-04-16T09:59:28;5.37;;;4.67;;
12956;SDS011;6543;48.836;10.092;2023-04-16T10:01:58;6.97;;;5.73;;
12956;SDS011;6543;48.836;10.092;2023-04-16T10:04:25;4.00;;;3.40;;
12956;SDS011;6543;48.836;10.092;2023-04-16T10:07:01;4.97;;;4.50;;
12956;SDS011;6543;48.836;10.092;2023-04-16T10:09:30;5.43;;;4.90;;
12956;SDS011;6543;48.836;10.092;2023-04-16T10:11:58;6.43;;;5.83;;
12956;SDS011;6543;48.836;10.092;2023-04-16T10:14:25;7.07;;;6.30;;
12956;SDS011;6543;48.836;10.092;2023-04-16T10:16:51;6.07;;;5.47;;
12956;SDS011;6543;48.836;10.092;2023-04-16T10:19:20;6.30;;;5.73;;
12956;SDS011;6543;48.836;10.092;2023-04-16T10:21:47;6.50;;;5.80;;
12956;SDS011;6543;48.836;10.092;2023-04-16T10:24:16;7.83;;;6.67;;
12956;SDS011;6543;48.836;10.092;2023-04-16T10:26:43;6.80;;;6.10;;
12956;SDS011;6543;48.836;10.092;2023-04-16T10:29:10;6.37;;;5.70;;
12956;SDS011;6543;48.836;10.092;2023-04-16T10:31:37;7.13;;;5.67;;
12956;SDS011;6543;48.836;10.092;2023-04-16T10:34:06;7.33;;;6.53;;
12956;SDS011;6543;48.836;10.092;2023-04-16T10:36:35;7.03;;;5.47;;
12956;SDS011;6543;48.836;10.092;2023-04-16T10:39:02;5.93;;;5.43;;
12956;SDS011;6543;48.836;10.092;2023-04-16T10:41:32;10.80;;;7.07;;
12956;SDS011;6543;48.836;10.092;2023-04-16T10:44:05;7.17;;;5.43;;
12956;SDS011;6543;48.836;10.092;2023-04-16T10:46:35;6.87;;;4.77;;
12956;SDS011;6543;48.836;10.092;2023-04-16T10:49:11;5.47;;;4.93;;
12956;SDS011;6543;48.836;10.092;2023-04-16T10:51:40;9.53;;;6.43;;
12956;SDS011;6543;48.836;10.092;2023-04-16T10:54:21;7.00;;;5.13;;
12956;SDS011;6543;48.836;10.092;2023-04-16T10:56:52;6.87;;;5.13;;
12956;SDS011;6543;48.836;10.092;2023-04-16T10:59:21;5.00;;;4.50;;
12956;SDS011;6543;48.836;10.092;2023-04-16T11:01:49;8.10;;;5.17;;
12956;SDS011;6543;48.836;10.092;2023-04-16T11:04:33;5.73;;;5.00;;
12956;SDS011;6543;48.836;10.092;2023-04-16T11:07:01;4.90;;;4.40;;
12956;SDS011;6543;48.836;10.092;2023-04-16T11:09:44;5.50;;;4.90;;
12956;SDS011;6543;48.836;10.092;2023-04-16T11:12:24;3.93;;;2.90;;
12956;SDS011;6543;48.836;10.092;2023-04-16T11:14:54;6.67;;;5.07;;
12956;SDS011;6543;48.836;10.092;2023-04-16T11:17:26;4.10;;;3.67;;
12956;SDS011;6543;48.836;10.092;2023-04-16T11:19:54;4.93;;;4.00;;
12956;SDS011;6543;48.836;10.092;2023-04-16T11:22:21;3.50;;;3.17;;
12956;SDS011;6543;48.836;10.092;2023-04-16T11:24:52;4.27;;;3.70;;
12956;SDS011;6543;48.836;10.092;2023-04-16T11:27:20;4.23;;;3.83;;
12956;SDS011;6543;48.836;10.092;2023-04-16T11:29:55;3.87;;;3.43;;
12956;SDS011;6543;48.836;10.092;2023-04-16T11:32:24;4.87;;;4.03;;
12956;SDS011;6543;48.836;10.092;2023-04-16T11:34:50;4.53;;;3.97;;
12956;SDS011;6543;48.836;10.092;2023-04-16T11:37:18;5.17;;;4.07;;
12956;SDS011;6543;48.836;10.092;2023-04-16T11:39:47;4.50;;;3.87;;
12956;SDS011;6543;48.836;10.092;2023-04-16T11:42:19;5.67;;;4.67;;
12956;SDS011;6543;48.836;10.092;2023-04-16T11:44:52;3.87;;;3.50;;
12956;SDS011;6543;48.836;10.092;2023-04-16T11:47:19;3.40;;;3.10;;
12956;SDS011;6543;48.836;10.092;2023-04-16T11:49:47;3.63;;;3.30;;
12956;SDS011;6543;48.836;10.092;2023-04-16T11:52:23;3.97;;;3.67;;
12956;SDS011;6543;48.836;10.092;2023-04-16T11:54:52;3.50;;;3.20;;
12956;SDS011;6543;48.836;10.092;2023-04-16T11:57:23;4.00;;;3.67;;
12956;SDS011;6543;48.836;10.092;2023-04-16T11:59:54;6.30;;;4.37;;
12956;SDS011;6543;48.836;10.092;2023-04-16T12:02:34;4.67;;;4.27;;
12956;SDS011;6543;48.836;10.092;2023-04-16T12:05:05;3.90;;;3.50;;
12956;SDS011;6543;48.836;10.092;2023-04-16T12:07:50;4.07;;;3.67;;
12956;SDS011;6543;48.836;10.092;2023-04-16T12:10:17;3.93;;;3.53;;
12956;SDS011;6543;48.836;10.092;2023-04-16T12:12:44;3.10;;;2.87;;
12956;SDS011;6543;48.836;10.092;2023-04-16T12:15:12;3.93;;;3.40;;
12956;SDS011;6543;48.836;10.092;2023-04-16T12:17:39;3.27;;;2.97;;
12956;SDS011;6543;48.836;10.092;2023-04-16T12:20:07;3.13;;;2.83;;
12956;SDS011;6543;48.836;10.092;2023-04-16T12:22:35;3.77;;;3.43;;
12956;SDS011;6543;48.836;10.092;2023-04-16T12:25:04;6.67;;;4.33;;
12956;SDS011;6543;48.836;10.092;2023-04-16T12:27:44;4.73;;;3.20;;
12956;SDS011;6543;48.836;10.092;2023-04-16T12:30:14;7.47;;;4.50;;
12956;SDS011;6543;48.836;10.092;2023-04-16T12:32:42;4.77;;;3.73;;
12956;SDS011;6543;48.836;10.092;2023-04-16T12:35:12;7.20;;;4.63;;
12956;SDS011;6543;48.836;10.092;2023-04-16T12:37:39;3.73;;;3.37;;
12956;SDS011;6543;48.836;10.092;2023-04-16T12:40:06;3.00;;;2.80;;
12956;SDS011;6543;48.836;10.092;2023-04-16T12:42:34;2.83;;;2.63;;
12956;SDS011;6543;48.836;10.092;2023-04-16T12:45:01;3.83;;;3.10;;
12956;SDS011;6543;48.836;10.092;2023-04-16T12:47:30;1.73;;;1.63;;
12956;SDS011;6543;48.836;10.092;2023-04-16T12:49:57;2.43;;;2.23;;
12956;SDS011;6543;48.836;10.092;2023-04-16T12:52:24;3.00;;;2.33;;
12956;SDS011;6543;48.836;10.092;2023-04-16T12:54:51;3.57;;;3.27;;
12956;SDS011;6543;48.836;10.092;2023-04-16T12:57:18;3.10;;;2.77;;
12956;SDS011;6543;48.836;10.092;2023-04-16T12:59:45;2.63;;;2.43;;
12956;SDS011;6543;48.836;10.092;2023-04-16T13:02:12;3.20;;;2.90;;
12956;SDS011;6543;48.836;10.092;2023-04-16T13:04:40;2.90;;;2.60;;
12956;SDS011;6543;48.836;10.092;2023-04-16T13:07:07;3.80;;;3.47;;
12956;SDS011;6543;48.836;10.092;2023-04-16T13:09:34;3.10;;;2.80;;
12956;SDS011;6543;48.836;10.092;2023-04-16T13:12:01;6.10;;;3.23;;
12956;SDS011;6543;48.836;10.092;2023-04-16T13:14:28;3.70;;;3.27;;
12956;SDS011;6543;48.836;10.092;2023-04-16T13:16:55;3.60;;;3.30;;
12956;SDS011;6543;48.836;10.092;2023-04-16T13:19:22;3.73;;;3.43;;
12956;SDS011;6543;48.836;10.092;2023-04-16T13:21:50;4.37;;;3.90;;
12956;SDS011;6543;48.836;10.092;2023-04-16T13:24:18;3.70;;;3.40;;
12956;SDS011;6543;48.836;10.092;2023-04-16T13:26:44;3.23;;;3.03;;
12956;SDS011;6543;48.836;10.092;2023-04-16T13:29:12;4.07;;;3.60;;
12956;SDS011;6543;48.836;10.092;2023-04-16T13:31:39;3.57;;;3.27;;
12956;SDS011;6543;48.836;10.092;2023-04-16T13:34:06;4.63;;;4.10;;
12956;SDS011;6543;48.836;10.092;2023-04-16T13:36:33;4.63;;;4.23;;
12956;SDS011;6543;48.836;10.092;2023-04-16T13:39:01;4.57;;;3.90;;
12956;SDS011;6543;48.836;10.092;2023-04-16T13:41:34;4.40;;;4.00;;
12956;SDS011;6543;48.836;10.092;2023-04-16T13:44:01;4.40;;;4.00;;
12956;SDS011;6543;48.836;10.092;2023-04-16T13:46:28;5.07;;;4.53;;
12956;SDS011;6543;48.836;10.092;2023-04-16T13:48:55;5.10;;;4.60;;
12956;SDS011;6543;48.836;10.092;2023-04-16T13:51:22;4.93;;;4.47;;
12956;SDS011;6543;48.836;10.092;2023-04-16T13:53:49;5.57;;;4.97;;
12956;SDS011;6543;48.836;10.092;2023-04-16T13:56:17;5.30;;;4.80;;
12956;SDS011;6543;48.836;10.092;2023-04-16T13:58:44;5.23;;;4.73;;
12956;SDS011;6543;48.836;10.092;2023-04-16T14:01:11;7.90;;;4.80;;
12956;SDS011;6543;48.836;10.092;2023-04-16T14:03:38;5.57;;;5.07;;
12956;SDS011;6543;48.836;10.092;2023-04-16T14:06:05;4.80;;;4.40;;
12956;SDS011;6543;48.836;10.092;2023-04-16T14:08:32;5.30;;;4.80;;
12956;SDS011;6543;48.836;10.092;2023-04-16T14:10:59;4.97;;;4.57;;
12956;SDS011;6543;48.836;10.092;2023-04-16T14:13:28;5.17;;;4.67;;
12956;SDS011;6543;48.836;10.092;2023-04-16T14:15:55;5.60;;;5.10;;
12956;SDS011;6543;48.836;10.092;2023-04-16T14:18:21;4.63;;;4.23;;
12956;SDS011;6543;48.836;10.092;2023-04-16T14:20:48;5.77;;;5.27;;
12956;SDS011;6543;48.836;10.092;2023-04-16T14:23:15;5.23;;;4.73;;
12956;SDS011;6543;48.836;10.092;2023-04-16T14:25:42;5.80;;;5.30;;
12956;SDS011;6543;48.836;10.092;2023-04-16T14:28:09;6.47;;;5.70;;
12956;SDS011;6543;48.836;10.092;2023-04-16T14:30:37;5.43;;;4.80;;
12956;SDS011;6543;48.836;10.092;2023-04-16T14:33:04;5.63;;;5.13;;
12956;SDS011;6543;48.836;10.092;2023-04-16T14:35:31;5.60;;;5.10;;
12956;SDS011;6543;48.836;10.092;2023-04-16T14:37:58;5.73;;;5.20;;
12956;SDS011;6543;48.836;10.092;2023-04-16T14:40:26;6.67;;;6.07;;
12956;SDS011;6543;48.836;10.092;2023-04-16T14:42:53;5.87;;;5.37;;
12956;SDS011;6543;48.836;10.092;2023-04-16T14:45:20;5.40;;;4.97;;
12956;SDS011;6543;48.836;10.092;2023-04-16T14:47:48;5.40;;;4.90;;
12956;SDS011;6543;48.836;10.092;2023-04-16T14:50:15;6.57;;;5.30;;
12956;SDS011;6543;48.836;10.092;2023-04-16T14:52:42;7.57;;;6.13;;